createdAt,value
2023-05-15T00:01:33.453Z,1.05
2023-05-15T00:04:04.575Z,0.98
2023-05-15T00:06:38.220Z,0.95
2023-05-15T00:09:09.265Z,1.83
2023-05-15T00:11:40.212Z,0.70
2023-05-15T00:14:11.536Z,1.85
2023-05-15T00:16:42.834Z,1.05
2023-05-15T00:19:13.792Z,2.15
2023-05-15T00:21:47.373Z,2.05
2023-05-15T00:24:18.309Z,1.58
2023-05-15T00:26:49.005Z,1.00
2023-05-15T00:29:19.988Z,2.90
2023-05-15T00:31:51.432Z,1.38
2023-05-15T00:34:22.506Z,2.35
2023-05-15T00:36:56.325Z,1.40
2023-05-15T00:39:27.057Z,2.00
2023-05-15T00:42:02.148Z,0.73
2023-05-15T00:44:34.085Z,1.58
2023-05-15T00:47:05.885Z,1.67
2023-05-15T00:49:38.198Z,0.85
2023-05-15T00:52:11.780Z,1.15
2023-05-15T00:54:42.724Z,1.77
2023-05-15T00:57:14.688Z,1.33
2023-05-15T00:59:48.397Z,1.48
2023-05-15T01:02:21.507Z,1.48
2023-05-15T01:04:52.683Z,1.88
2023-05-15T01:07:26.453Z,3.25
2023-05-15T01:09:59.272Z,1.25
2023-05-15T01:12:35.287Z,1.45
2023-05-15T01:15:06.502Z,1.40
2023-05-15T01:17:37.982Z,1.70
2023-05-15T01:20:12.795Z,2.83
2023-05-15T01:23:14.230Z,3.47
2023-05-15T01:26:19.430Z,1.08
2023-05-15T01:29:01.482Z,2.30
2023-05-15T01:31:35.042Z,1.15
2023-05-15T01:34:10.391Z,1.80
2023-05-15T01:36:46.605Z,2.38
2023-05-15T01:39:23.683Z,1.10
2023-05-15T01:41:59.221Z,1.73
2023-05-15T01:44:39.303Z,0.68
2023-05-15T01:47:14.181Z,3.15
2023-05-15T01:49:48.362Z,1.75
2023-05-15T01:52:25.711Z,2.00
2023-05-15T01:54:57.868Z,1.35
2023-05-15T01:57:31.514Z,1.23
2023-05-15T02:00:06.349Z,3.40
2023-05-15T02:02:45.511Z,4.32
2023-05-15T02:05:17.499Z,1.42
2023-05-15T02:07:51.513Z,2.55
2023-05-15T02:10:22.799Z,2.28
2023-05-15T02:12:53.873Z,1.92
2023-05-15T02:15:30.059Z,1.17
2023-05-15T02:18:01.377Z,1.77
2023-05-15T02:20:32.804Z,2.17
2023-05-15T02:23:03.677Z,1.75
2023-05-15T02:25:42.198Z,2.28
2023-05-15T02:30:58.623Z,2.25
2023-05-15T02:33:37.279Z,1.33
2023-05-15T02:36:12.487Z,2.22
2023-05-15T02:38:50.816Z,3.42
2023-05-15T02:41:25.209Z,1.60
2023-05-15T02:43:59.791Z,1.60
2023-05-15T02:46:33.852Z,2.15
2023-05-15T02:49:05.688Z,2.67
2023-05-15T02:51:36.806Z,2.03
2023-05-15T02:54:09.281Z,1.88
2023-05-15T02:56:40.222Z,2.75
2023-05-15T02:59:11.213Z,1.58
2023-05-15T03:01:44.859Z,1.40
2023-05-15T03:04:16.852Z,2.47
2023-05-15T03:06:48.299Z,2.15
2023-05-15T03:09:19.575Z,1.48
2023-05-15T03:11:50.780Z,2.08
2023-05-15T03:14:21.765Z,1.67
2023-05-15T03:16:55.785Z,2.80
2023-05-15T03:19:26.378Z,1.48
2023-05-15T03:21:57.374Z,1.73
2023-05-15T03:24:28.457Z,1.33
2023-05-15T03:26:59.375Z,2.75
2023-05-15T03:29:30.161Z,2.63
2023-05-15T03:32:03.936Z,2.42
2023-05-15T03:34:35.392Z,1.42
2023-05-15T03:37:06.418Z,1.60
2023-05-15T03:39:37.881Z,2.67
2023-05-15T03:42:09.636Z,3.47
2023-05-15T03:44:40.829Z,2.47
2023-05-15T03:47:14.366Z,1.63
2023-05-15T03:49:47.499Z,1.75
2023-05-15T03:52:18.472Z,1.52
2023-05-15T03:54:49.620Z,4.75
2023-05-15T03:57:22.068Z,2.08
2023-05-15T03:59:53.056Z,3.10
2023-05-15T04:02:26.779Z,3.20
2023-05-15T04:04:57.776Z,2.25
2023-05-15T04:07:29.114Z,1.55
2023-05-15T04:10:01.913Z,2.63
2023-05-15T04:12:33.127Z,2.65
2023-05-15T04:15:17.902Z,2.42
2023-05-15T04:17:52.855Z,2.55
2023-05-15T04:20:26.379Z,1.48
2023-05-15T04:22:57.477Z,2.08
2023-05-15T04:25:28.498Z,3.22
2023-05-15T04:27:59.659Z,2.28
2023-05-15T04:30:30.498Z,2.53
2023-05-15T04:33:04.145Z,3.63
2023-05-15T04:35:35.236Z,3.35
2023-05-15T04:38:06.992Z,1.80
2023-05-15T04:40:38.160Z,2.95
2023-05-15T04:43:09.388Z,1.80
2023-05-15T04:45:46.822Z,3.40
2023-05-15T04:48:20.603Z,1.63
2023-05-15T04:50:51.418Z,1.52
2023-05-15T04:53:21.839Z,3.47
2023-05-15T04:55:53.915Z,2.25
2023-05-15T04:58:24.405Z,2.42
2023-05-15T05:00:54.782Z,1.42
2023-05-15T05:03:27.949Z,2.00
2023-05-15T05:05:58.463Z,2.08
2023-05-15T05:08:28.905Z,2.38
2023-05-15T05:11:00.377Z,1.83
2023-05-15T05:13:31.201Z,3.70
2023-05-15T05:16:01.684Z,1.08
2023-05-15T05:18:34.795Z,3.38
2023-05-15T05:21:05.924Z,3.03
2023-05-15T05:23:36.567Z,3.67
2023-05-15T05:26:07.101Z,2.08
2023-05-15T05:28:37.588Z,2.63
2023-05-15T05:31:08.132Z,2.28
2023-05-15T05:33:41.254Z,2.92
2023-05-15T05:36:12.471Z,1.75
2023-05-15T05:38:42.964Z,3.47
2023-05-15T05:41:13.376Z,3.50
2023-05-15T05:43:43.800Z,3.13
2023-05-15T05:46:14.217Z,3.22
2023-05-15T05:48:47.295Z,2.65
2023-05-15T05:51:18.412Z,2.08
2023-05-15T05:53:49.038Z,1.25
2023-05-15T05:56:19.719Z,3.33
2023-05-15T05:58:50.434Z,1.35
2023-05-15T06:01:20.855Z,3.05
2023-05-15T06:03:53.921Z,2.47
2023-05-15T06:06:24.364Z,3.20
2023-05-15T06:08:56.466Z,2.65
2023-05-15T06:11:27.407Z,3.55
2023-05-15T06:13:57.890Z,1.88
2023-05-15T06:16:28.386Z,2.75
2023-05-15T06:19:01.660Z,2.53
2023-05-15T06:21:32.186Z,2.25
2023-05-15T06:24:02.638Z,1.45
2023-05-15T06:26:37.811Z,2.83
2023-05-15T06:29:08.585Z,3.20
2023-05-15T06:31:39.041Z,1.67
2023-05-15T06:34:12.082Z,1.80
2023-05-15T06:36:42.562Z,1.80
2023-05-15T06:39:13.558Z,2.85
2023-05-15T06:41:44.018Z,2.30
2023-05-15T06:44:16.446Z,1.98
2023-05-15T06:46:46.904Z,3.00
2023-05-15T06:49:20.173Z,3.67
2023-05-15T06:51:50.690Z,2.40
2023-05-15T06:54:21.489Z,2.45
2023-05-15T06:56:51.956Z,2.80
2023-05-15T06:59:22.439Z,1.90
2023-05-15T07:01:52.847Z,2.20
2023-05-15T07:04:26.450Z,1.95
2023-05-15T07:06:56.948Z,1.70
2023-05-15T07:09:27.721Z,2.90
2023-05-15T07:11:58.140Z,2.97
2023-05-15T07:14:28.781Z,2.33
2023-05-15T07:16:59.150Z,3.03
2023-05-15T07:19:32.321Z,2.45
2023-05-15T07:22:03.596Z,1.45
2023-05-15T07:24:39.133Z,2.00
2023-05-15T07:27:10.794Z,1.77
2023-05-15T07:29:41.218Z,1.30
2023-05-15T07:32:11.739Z,2.55
2023-05-15T07:34:44.838Z,2.35
2023-05-15T07:37:16.890Z,1.95
2023-05-15T07:39:47.664Z,1.23
2023-05-15T07:42:18.174Z,2.97
2023-05-15T07:44:49.602Z,1.63
2023-05-15T07:47:21.014Z,2.33
2023-05-15T07:49:54.165Z,2.47
2023-05-15T07:52:24.658Z,4.43
2023-05-15T07:54:55.089Z,3.75
2023-05-15T07:57:26.666Z,1.65
2023-05-15T07:59:57.209Z,2.35
2023-05-15T08:02:27.854Z,2.05
2023-05-15T08:05:01.176Z,1.67
2023-05-15T08:07:34.213Z,1.38
2023-05-15T08:10:06.506Z,2.90
2023-05-15T08:12:37.271Z,2.47
2023-05-15T08:15:08.560Z,1.98
2023-05-15T08:17:39.742Z,2.33
2023-05-15T08:20:14.410Z,2.20
2023-05-15T08:22:44.973Z,3.88
2023-05-15T08:25:15.542Z,2.45
2023-05-15T08:27:46.209Z,2.85
2023-05-15T08:30:18.302Z,2.85
2023-05-15T08:32:49.241Z,2.53
2023-05-15T08:35:22.771Z,2.47
2023-05-15T08:37:54.381Z,2.70
2023-05-15T08:40:38.469Z,2.72
2023-05-15T08:43:16.530Z,2.05
2023-05-15T08:45:47.519Z,1.48
2023-05-15T08:48:20.722Z,3.63
2023-05-15T08:50:54.615Z,3.58
2023-05-15T08:53:25.796Z,3.63
2023-05-15T08:55:56.501Z,1.90
2023-05-15T08:58:28.955Z,4.32
2023-05-15T09:01:00.700Z,2.72
2023-05-15T09:03:31.682Z,1.40
2023-05-15T09:06:05.500Z,2.35
2023-05-15T09:08:40.436Z,2.08
2023-05-15T09:11:11.429Z,2.63
2023-05-15T09:13:42.040Z,2.00
2023-05-15T09:16:12.660Z,1.27
2023-05-15T09:18:44.843Z,1.45
2023-05-15T09:21:32.230Z,2.10
2023-05-15T09:24:21.540Z,1.92
2023-05-15T09:27:04.987Z,1.30
2023-05-15T09:29:37.380Z,1.60
2023-05-15T09:32:10.767Z,2.33
2023-05-15T09:34:43.052Z,2.35
2023-05-15T09:37:32.367Z,2.25
2023-05-15T09:40:12.573Z,1.13
2023-05-15T09:42:43.324Z,2.97
2023-05-15T09:45:20.834Z,3.20
2023-05-15T09:47:51.457Z,3.42
2023-05-15T09:50:25.576Z,3.60
2023-05-15T09:53:02.737Z,3.13
2023-05-15T09:55:36.455Z,2.15
2023-05-15T09:58:11.525Z,4.35
2023-05-15T10:00:47.912Z,3.85
2023-05-15T10:03:22.502Z,3.42
2023-05-15T10:05:53.089Z,1.88
2023-05-15T10:08:32.472Z,2.42
2023-05-15T10:11:03.796Z,2.90
2023-05-15T10:13:37.533Z,2.28
2023-05-15T10:16:08.921Z,2.28
2023-05-15T10:18:41.594Z,2.58
2023-05-15T10:21:13.104Z,4.03
2023-05-15T10:23:46.898Z,4.65
2023-05-15T10:26:24.652Z,4.35
2023-05-15T10:28:56.105Z,2.58
2023-05-15T10:31:27.856Z,2.55
2023-05-15T10:33:59.070Z,3.08
2023-05-15T10:36:30.006Z,2.08
2023-05-15T10:39:04.217Z,3.53
2023-05-15T10:41:38.760Z,2.78
2023-05-15T10:44:09.551Z,2.90
2023-05-15T10:46:40.687Z,3.65
2023-05-15T10:49:11.274Z,2.08
2023-05-15T10:51:42.221Z,1.75
2023-05-15T10:54:15.417Z,1.73
2023-05-15T10:56:45.976Z,2.38
2023-05-15T10:59:16.564Z,3.42
2023-05-15T11:01:47.399Z,1.40
2023-05-15T11:04:19.010Z,4.25
2023-05-15T11:06:50.973Z,2.33
2023-05-15T11:09:39.973Z,2.63
2023-05-15T11:12:12.488Z,3.65
2023-05-15T11:14:45.043Z,3.05
2023-05-15T11:17:16.857Z,2.45
2023-05-15T11:20:03.261Z,5.15
2023-05-15T11:22:36.337Z,1.27
2023-05-15T11:25:12.666Z,3.05
2023-05-15T11:27:44.808Z,2.95
2023-05-15T11:30:18.528Z,2.03
2023-05-15T11:32:54.155Z,2.75
2023-05-15T11:35:26.655Z,2.55
2023-05-15T11:37:58.469Z,1.58
2023-05-15T11:40:33.082Z,2.25
2023-05-15T11:43:22.280Z,2.75
2023-05-15T11:45:56.474Z,4.10
2023-05-15T11:48:28.346Z,4.47
2023-05-15T11:50:58.908Z,2.00
2023-05-15T11:53:29.923Z,3.53
2023-05-15T11:56:03.393Z,3.85
2023-05-15T11:58:33.845Z,4.85
2023-05-15T12:01:04.345Z,3.25
2023-05-15T12:03:37.395Z,1.88
2023-05-15T12:06:08.463Z,3.65
2023-05-15T12:08:42.315Z,3.95
2023-05-15T12:11:15.887Z,2.38
2023-05-15T12:13:46.395Z,2.85
2023-05-15T12:16:16.849Z,3.20
2023-05-15T12:18:50.310Z,2.85
2023-05-15T12:21:21.175Z,3.45
2023-05-15T12:26:33.181Z,2.20
2023-05-15T12:29:03.801Z,3.25
2023-05-15T12:31:34.451Z,3.45
2023-05-15T12:34:04.968Z,1.10
2023-05-15T12:36:35.449Z,1.45
2023-05-15T12:39:09.379Z,2.35
2023-05-15T12:41:43.254Z,4.13
2023-05-15T12:44:20.462Z,3.50
2023-05-15T12:46:51.354Z,5.43
2023-05-15T12:49:25.934Z,3.78
2023-05-15T12:51:56.414Z,3.33
2023-05-15T12:54:27.659Z,3.30
2023-05-15T12:57:02.049Z,3.10
2023-05-15T12:59:34.463Z,2.85
2023-05-15T13:02:05.334Z,2.65
2023-05-15T13:04:36.586Z,3.78
2023-05-15T13:07:07.417Z,2.50
2023-05-15T13:09:38.380Z,2.70
2023-05-15T13:12:12.349Z,3.00
2023-05-15T13:14:45.228Z,2.03
2023-05-15T13:17:17.759Z,2.05
2023-05-15T13:19:48.235Z,3.63
2023-05-15T13:22:18.677Z,2.65
2023-05-15T13:24:49.385Z,2.22
2023-05-15T13:27:22.511Z,3.53
2023-05-15T13:29:52.942Z,3.70
2023-05-15T13:32:23.419Z,1.80
2023-05-15T13:34:55.216Z,2.50
2023-05-15T13:37:25.764Z,1.33
2023-05-15T13:39:56.232Z,1.75
2023-05-15T13:42:29.268Z,1.90
2023-05-15T13:44:59.879Z,1.45
2023-05-15T13:47:30.499Z,2.70
2023-05-15T13:50:01.183Z,1.50
2023-05-15T13:52:32.303Z,1.05
2023-05-15T13:55:02.875Z,3.25
2023-05-15T13:57:36.119Z,1.35
2023-05-15T14:00:08.097Z,0.90
2023-05-15T14:02:38.614Z,1.50
2023-05-15T14:05:09.733Z,0.77
2023-05-15T14:07:40.431Z,1.55
2023-05-15T14:10:12.353Z,1.70
2023-05-15T14:12:46.964Z,2.17
2023-05-15T14:15:17.636Z,1.55
2023-05-15T14:17:49.004Z,0.95
2023-05-15T14:20:19.509Z,0.50
2023-05-15T14:22:49.929Z,1.05
2023-05-15T14:25:20.467Z,0.80
2023-05-15T14:27:53.611Z,0.60
2023-05-15T14:30:26.173Z,0.50
2023-05-15T14:32:56.964Z,1.50
2023-05-15T14:35:27.491Z,1.48
2023-05-15T14:37:57.848Z,0.70
2023-05-15T14:40:28.446Z,0.80
2023-05-15T14:43:01.660Z,0.55
2023-05-15T14:45:32.106Z,0.70
2023-05-15T14:48:02.580Z,0.93
2023-05-15T14:50:33.208Z,0.98
2023-05-15T14:53:03.632Z,1.33
2023-05-15T14:55:34.157Z,1.45
2023-05-15T14:58:07.245Z,0.90
2023-05-15T15:00:37.703Z,0.60
2023-05-15T15:03:08.354Z,1.70
2023-05-15T15:05:38.820Z,1.00
2023-05-15T15:08:11.192Z,0.80
2023-05-15T15:10:43.792Z,0.70
2023-05-15T15:13:17.276Z,0.65
2023-05-15T15:15:47.855Z,1.20
2023-05-15T15:18:18.336Z,0.63
2023-05-15T15:20:48.893Z,0.70
2023-05-15T15:23:19.259Z,1.08
2023-05-15T15:25:49.652Z,0.75
2023-05-15T15:28:22.935Z,0.93
2023-05-15T15:30:53.551Z,0.70
2023-05-15T15:33:23.986Z,0.60
2023-05-15T15:35:54.465Z,0.70
2023-05-15T15:38:24.778Z,1.27
2023-05-15T15:40:55.296Z,1.85
2023-05-15T15:43:28.331Z,1.58
2023-05-15T15:45:58.872Z,2.88
2023-05-15T15:48:29.667Z,0.63
2023-05-15T15:51:00.225Z,1.13
2023-05-15T15:53:34.365Z,1.20
2023-05-15T15:56:04.815Z,0.70
2023-05-15T15:58:37.885Z,2.15
2023-05-15T16:01:08.441Z,0.82
2023-05-15T16:03:38.994Z,0.85
2023-05-15T16:06:09.641Z,1.45
2023-05-15T16:08:40.098Z,0.80
2023-05-15T16:11:10.493Z,1.25
2023-05-15T16:13:43.588Z,0.68
2023-05-15T16:16:14.100Z,0.93
2023-05-15T16:18:44.921Z,0.60
2023-05-15T16:21:15.714Z,1.00
2023-05-15T16:23:46.157Z,0.70
2023-05-15T16:26:16.569Z,0.60
2023-05-15T16:28:49.640Z,0.55
2023-05-15T16:31:20.474Z,0.73
2023-05-15T16:33:52.415Z,0.80
2023-05-15T16:36:23.962Z,0.60
2023-05-15T16:38:55.429Z,0.65
2023-05-15T16:41:26.909Z,0.90
2023-05-15T16:44:00.784Z,0.80
2023-05-15T16:46:33.374Z,0.70
2023-05-15T16:49:03.892Z,0.63
2023-05-15T16:51:34.646Z,0.50
2023-05-15T16:54:05.093Z,0.60
2023-05-15T16:56:35.500Z,0.88
2023-05-15T16:59:08.545Z,0.55
2023-05-15T17:01:39.044Z,0.60
2023-05-15T17:04:09.941Z,0.70
2023-05-15T17:06:40.595Z,1.08
2023-05-15T17:09:14.099Z,1.25
2023-05-15T17:11:45.294Z,0.63
2023-05-15T17:14:18.268Z,0.75
2023-05-15T17:16:48.730Z,1.00
2023-05-15T17:19:19.236Z,0.60
2023-05-15T17:21:49.870Z,0.60
2023-05-15T17:24:20.339Z,0.60
2023-05-15T17:26:51.024Z,0.77
2023-05-15T17:29:24.156Z,1.00
2023-05-15T17:31:55.202Z,0.68
2023-05-15T17:34:25.705Z,0.60
2023-05-15T17:36:56.446Z,0.70
2023-05-15T17:39:27.571Z,1.80
2023-05-15T17:41:58.024Z,1.67
2023-05-15T17:44:31.364Z,0.60
2023-05-15T17:47:01.987Z,0.65
2023-05-15T17:49:34.452Z,0.82
2023-05-15T17:52:04.917Z,0.60
2023-05-15T17:54:35.653Z,0.70
2023-05-15T17:57:06.088Z,0.65
2023-05-15T17:59:39.297Z,0.68
2023-05-15T18:02:10.494Z,0.60
2023-05-15T18:04:42.368Z,0.65
2023-05-15T18:07:13.866Z,0.77
2023-05-15T18:09:44.936Z,0.65
2023-05-15T18:12:15.998Z,0.57
2023-05-15T18:14:49.580Z,0.80
2023-05-15T18:17:21.569Z,0.60
2023-05-15T18:19:52.746Z,0.60
2023-05-15T18:22:23.912Z,1.02
2023-05-15T18:24:54.967Z,2.08
2023-05-15T18:27:26.118Z,1.48
2023-05-15T18:30:00.007Z,1.10
2023-05-15T18:32:31.443Z,0.80
2023-05-15T18:35:03.068Z,0.60
2023-05-15T18:37:34.228Z,0.60
2023-05-15T18:40:05.682Z,0.73
2023-05-15T18:42:37.050Z,0.60
2023-05-15T18:45:13.499Z,0.60
2023-05-15T18:47:44.905Z,1.10
2023-05-15T18:50:16.597Z,0.68
2023-05-15T18:52:47.458Z,0.60
2023-05-15T18:55:18.606Z,0.60
2023-05-15T18:57:49.520Z,0.60
2023-05-15T19:00:37.039Z,0.75
2023-05-15T19:03:09.434Z,0.70
2023-05-15T19:05:41.102Z,0.77
2023-05-15T19:08:12.128Z,0.70
2023-05-15T19:10:42.804Z,0.63
2023-05-15T19:13:13.668Z,0.80
2023-05-15T19:15:54.149Z,0.65
2023-05-15T19:18:25.030Z,0.70
2023-05-15T19:20:57.260Z,1.15
2023-05-15T19:23:28.931Z,0.60
2023-05-15T19:25:59.977Z,0.60
2023-05-15T19:28:32.374Z,0.63
2023-05-15T19:31:11.750Z,0.80
2023-05-15T19:33:48.472Z,1.17
2023-05-15T19:36:19.116Z,1.10
2023-05-15T19:38:49.956Z,0.60
2023-05-15T19:41:21.461Z,0.70
2023-05-15T19:43:52.408Z,0.70
2023-05-15T19:46:26.097Z,0.73
2023-05-15T19:48:57.994Z,0.60
2023-05-15T19:51:28.485Z,1.13
2023-05-15T19:54:02.102Z,0.80
2023-05-15T19:56:33.048Z,0.70
2023-05-15T19:59:03.872Z,0.80
2023-05-15T20:01:37.426Z,1.60
2023-05-15T20:04:08.504Z,0.63
2023-05-15T20:06:39.424Z,0.80
2023-05-15T20:09:10.482Z,0.63
2023-05-15T20:11:41.734Z,0.60
2023-05-15T20:14:12.852Z,0.60
2023-05-15T20:16:46.829Z,0.68
2023-05-15T20:19:21.938Z,0.60
2023-05-15T20:21:53.549Z,1.02
2023-05-15T20:24:25.975Z,0.70
2023-05-15T20:26:57.119Z,1.35
2023-05-15T20:29:28.833Z,0.77
2023-05-15T20:32:02.829Z,0.73
2023-05-15T20:34:35.033Z,0.65
2023-05-15T20:37:06.263Z,0.90
2023-05-15T20:39:37.331Z,0.70
2023-05-15T20:42:08.642Z,1.10
2023-05-15T20:44:40.261Z,0.60
2023-05-15T20:47:14.068Z,0.70
2023-05-15T20:49:44.938Z,0.70
2023-05-15T20:52:16.156Z,1.13
2023-05-15T20:54:46.665Z,1.10
2023-05-15T20:57:17.616Z,1.08
2023-05-15T20:59:48.753Z,2.28
2023-05-15T21:02:22.256Z,0.70
2023-05-15T21:04:53.200Z,0.63
2023-05-15T21:07:24.462Z,0.60
2023-05-15T21:09:55.128Z,0.68
2023-05-15T21:12:26.468Z,1.25
2023-05-15T21:14:57.593Z,0.70
2023-05-15T21:17:31.631Z,0.60
2023-05-15T21:20:04.484Z,0.80
2023-05-15T21:22:35.604Z,0.73
2023-05-15T21:25:06.654Z,1.08
2023-05-15T21:27:37.213Z,0.73
2023-05-15T21:30:09.464Z,0.65
2023-05-15T21:32:42.918Z,0.73
2023-05-15T21:35:14.202Z,0.60
2023-05-15T21:37:44.665Z,0.63
2023-05-15T21:40:16.283Z,1.40
2023-05-15T21:42:46.827Z,0.90
2023-05-15T21:45:17.630Z,0.70
2023-05-15T21:47:50.725Z,0.80
2023-05-15T21:50:21.241Z,1.23
2023-05-15T21:52:52.481Z,1.30
2023-05-15T21:55:22.958Z,0.60
2023-05-15T21:57:53.619Z,0.80
2023-05-15T22:00:24.195Z,0.88
2023-05-15T22:02:57.472Z,0.80
2023-05-15T22:05:28.012Z,0.70
2023-05-15T22:07:58.436Z,1.10
2023-05-15T22:10:28.901Z,0.68
2023-05-15T22:13:02.829Z,2.35
2023-05-15T22:15:33.289Z,0.60
2023-05-15T22:18:06.803Z,1.40
2023-05-15T22:20:38.165Z,0.60
2023-05-15T22:23:08.788Z,0.63
2023-05-15T22:25:39.192Z,1.17
2023-05-15T22:28:09.857Z,0.70
2023-05-15T22:30:40.258Z,0.70
2023-05-15T22:33:13.379Z,0.80
2023-05-15T22:35:44.768Z,0.90
2023-05-15T22:38:16.022Z,0.70
2023-05-15T22:40:46.529Z,0.82
2023-05-15T22:43:16.917Z,1.00
2023-05-15T22:45:47.546Z,0.70
2023-05-15T22:48:21.234Z,1.25
2023-05-15T22:50:52.478Z,0.70
2023-05-15T22:53:23.103Z,0.60
2023-05-15T22:55:53.503Z,0.80
2023-05-15T22:58:24.009Z,0.95
2023-05-15T23:00:54.519Z,0.70
2023-05-15T23:03:27.872Z,0.65
2023-05-15T23:05:58.285Z,1.15
2023-05-15T23:08:28.633Z,0.80
2023-05-15T23:10:59.148Z,0.70
2023-05-15T23:13:29.764Z,0.70
2023-05-15T23:16:00.332Z,1.45
2023-05-15T23:18:33.522Z,0.60
2023-05-15T23:21:05.062Z,0.70
2023-05-15T23:23:35.682Z,1.45
2023-05-15T23:26:06.278Z,1.60
2023-05-15T23:28:36.665Z,0.70
2023-05-15T23:31:07.203Z,0.60
2023-05-15T23:33:40.412Z,0.60
2023-05-15T23:36:10.984Z,1.25
2023-05-15T23:38:41.386Z,0.60
2023-05-15T23:41:11.743Z,1.23
2023-05-15T23:43:42.134Z,0.70
2023-05-15T23:46:12.572Z,1.15
2023-05-15T23:48:45.608Z,0.98
2023-05-15T23:51:16.127Z,0.70
2023-05-15T23:53:46.523Z,0.70
2023-05-15T23:56:16.953Z,0.70
2023-05-15T23:58:47.506Z,0.98
